createdAt,value
2018-04-27T00:00:23.419Z,37.30
2018-04-27T00:02:51.763Z,37.40
2018-04-27T00:05:19.403Z,37.30
2018-04-27T00:07:48.308Z,37.30
2018-04-27T00:10:16.703Z,38.20
2018-04-27T00:12:44.286Z,37.30
2018-04-27T00:15:11.897Z,37.30
2018-04-27T00:17:40.268Z,37.20
2018-04-27T00:20:07.898Z,37.10
2018-04-27T00:22:35.473Z,37.10
2018-04-27T00:25:03.854Z,37.00
2018-04-27T00:27:31.446Z,37.00
2018-04-27T00:29:59.823Z,36.90
2018-04-27T00:32:27.425Z,36.90
2018-04-27T00:34:55.065Z,36.90
2018-04-27T00:37:22.651Z,36.90
2018-04-27T00:39:50.264Z,36.90
2018-04-27T00:42:17.930Z,36.90
2018-04-27T00:44:45.544Z,36.80
2018-04-27T00:47:13.126Z,36.80
2018-04-27T00:49:40.738Z,36.80
2018-04-27T00:52:09.086Z,36.80
2018-04-27T00:54:36.699Z,36.80
2018-04-27T00:57:05.043Z,36.80
2018-04-27T00:59:32.664Z,37.50
2018-04-27T01:02:00.246Z,36.80
2018-04-27T01:04:27.854Z,36.80
2018-04-27T01:06:55.428Z,36.80
2018-04-27T01:09:23.038Z,36.90
2018-04-27T01:11:50.606Z,36.90
2018-04-27T01:14:18.225Z,36.90
2018-04-27T01:16:46.568Z,36.90
2018-04-27T01:19:14.187Z,36.90
2018-04-27T01:21:41.771Z,37.00
2018-04-27T01:24:09.387Z,36.90
2018-04-27T01:26:37.730Z,37.00
2018-04-27T01:29:05.336Z,37.00
2018-04-27T01:31:32.927Z,37.00
2018-04-27T01:34:00.503Z,37.00
2018-04-27T01:36:28.244Z,37.00
2018-04-27T01:38:55.825Z,37.00
2018-04-27T01:41:23.445Z,37.00
2018-04-27T01:43:51.026Z,37.00
2018-04-27T01:46:18.650Z,37.00
2018-04-27T01:48:46.257Z,37.00
2018-04-27T01:51:14.645Z,37.00
2018-04-27T01:53:42.977Z,37.10
2018-04-27T01:56:10.590Z,37.10
2018-04-27T01:58:38.159Z,37.10
2018-04-27T02:01:05.768Z,37.10
2018-04-27T02:03:33.347Z,37.10
2018-04-27T02:06:01.022Z,37.10
2018-04-27T02:08:28.570Z,37.10
2018-04-27T02:10:56.965Z,37.10
2018-04-27T02:13:25.310Z,37.10
2018-04-27T02:15:52.922Z,37.10
2018-04-27T02:18:20.533Z,37.10
2018-04-27T02:20:48.155Z,37.10
2018-04-27T02:23:15.826Z,37.10
2018-04-27T02:25:44.207Z,37.20
2018-04-27T02:28:11.787Z,37.20
2018-04-27T02:30:39.402Z,37.20
2018-04-27T02:33:07.747Z,37.20
2018-04-27T02:35:35.361Z,37.20
2018-04-27T02:38:02.934Z,37.20
2018-04-27T02:40:30.566Z,37.20
2018-04-27T02:42:58.907Z,37.30
2018-04-27T02:45:26.518Z,37.20
2018-04-27T02:47:54.106Z,37.20
2018-04-27T02:50:21.726Z,37.20
2018-04-27T02:52:50.068Z,37.90
2018-04-27T02:55:17.694Z,37.20
2018-04-27T02:57:46.047Z,37.30
2018-04-27T03:00:13.659Z,37.30
2018-04-27T03:02:41.238Z,37.20
2018-04-27T03:05:08.885Z,37.20
2018-04-27T03:07:37.268Z,37.20
2018-04-27T03:10:04.910Z,37.20
2018-04-27T03:12:32.487Z,37.20
2018-04-27T03:15:00.070Z,37.30
2018-04-27T03:17:27.685Z,37.20
2018-04-27T03:19:55.258Z,37.20
2018-04-27T03:22:22.874Z,37.20
2018-04-27T03:24:50.448Z,37.20
2018-04-27T03:27:18.074Z,37.20
2018-04-27T03:29:45.650Z,37.20
2018-04-27T03:32:14.027Z,37.20
2018-04-27T03:34:41.607Z,37.20
2018-04-27T03:37:09.993Z,37.20
2018-04-27T03:39:37.570Z,37.20
2018-04-27T03:42:05.198Z,37.20
2018-04-27T03:44:32.807Z,37.20
2018-04-27T03:47:00.426Z,37.20
2018-04-27T03:49:28.022Z,37.20
2018-04-27T03:51:55.671Z,37.20
2018-04-27T03:54:23.247Z,37.20
2018-04-27T03:56:50.867Z,37.20
2018-04-27T03:59:30.207Z,37.20
2018-04-27T04:02:09.685Z,37.20
2018-04-27T04:04:48.967Z,37.20
2018-04-27T04:07:16.574Z,37.20
2018-04-27T04:09:44.151Z,37.20
2018-04-27T04:12:12.543Z,37.20
2018-04-27T04:14:40.127Z,37.20
2018-04-27T04:17:07.747Z,37.20
2018-04-27T04:19:36.091Z,37.30
2018-04-27T04:22:03.729Z,37.20
2018-04-27T04:24:32.071Z,38.00
2018-04-27T04:26:59.687Z,37.30
2018-04-27T04:29:27.265Z,37.30
2018-04-27T04:31:54.894Z,37.30
2018-04-27T04:34:23.239Z,37.30
2018-04-27T04:36:50.846Z,37.20
2018-04-27T04:39:18.430Z,37.20
2018-04-27T04:41:46.085Z,37.20
2018-04-27T04:44:13.687Z,37.30
2018-04-27T04:46:41.311Z,37.30
2018-04-27T04:49:08.890Z,37.30
2018-04-27T04:51:38.003Z,37.30
2018-04-27T04:54:05.577Z,37.30
2018-04-27T04:56:33.159Z,37.30
2018-04-27T04:59:00.771Z,37.30
2018-04-27T05:01:28.397Z,37.40
2018-04-27T05:03:56.047Z,37.40
2018-04-27T05:06:23.631Z,37.40
2018-04-27T05:08:51.254Z,38.20
2018-04-27T05:11:18.877Z,37.20
2018-04-27T05:13:46.486Z,37.40
2018-04-27T05:16:14.070Z,37.50
2018-04-27T05:18:56.585Z,37.50
2018-04-27T05:21:24.173Z,37.50
2018-04-27T05:23:51.818Z,37.50
2018-04-27T05:26:19.426Z,37.50
2018-04-27T05:28:47.045Z,37.50
2018-04-27T05:31:26.447Z,37.50
2018-04-27T05:33:54.068Z,37.50
2018-04-27T05:36:21.778Z,37.50
2018-04-27T05:38:50.184Z,37.60
2018-04-27T05:41:17.767Z,37.60
2018-04-27T05:43:45.386Z,37.60
2018-04-27T05:46:13.010Z,37.60
2018-04-27T05:48:40.625Z,37.60
2018-04-27T05:51:08.214Z,37.70
2018-04-27T05:53:35.826Z,37.70
2018-04-27T05:56:03.407Z,37.70
2018-04-27T05:58:31.027Z,37.80
2018-04-27T06:00:58.623Z,37.80
2018-04-27T06:03:26.295Z,37.80
2018-04-27T06:05:54.638Z,37.80
2018-04-27T06:08:22.254Z,37.80
2018-04-27T06:10:49.846Z,37.90
2018-04-27T06:13:18.230Z,38.00
2018-04-27T06:15:45.917Z,37.90
2018-04-27T06:18:13.534Z,38.00
2018-04-27T06:20:41.893Z,38.00
2018-04-27T06:23:09.509Z,38.00
2018-04-27T06:25:37.086Z,38.10
2018-04-27T06:28:04.710Z,38.10
2018-04-27T06:30:32.514Z,38.10
2018-04-27T06:33:00.124Z,38.10
2018-04-27T06:35:27.940Z,38.10
2018-04-27T06:37:55.550Z,38.10
2018-04-27T06:40:23.927Z,38.30
2018-04-27T06:42:51.509Z,39.00
2018-04-27T06:45:19.359Z,38.30
2018-04-27T06:47:46.945Z,38.40
2018-04-27T06:50:14.828Z,38.40
2018-04-27T06:52:42.466Z,38.40
2018-04-27T06:55:10.143Z,38.40
2018-04-27T06:57:37.723Z,38.40
2018-04-27T07:00:05.509Z,38.40
2018-04-27T07:02:33.094Z,38.40
2018-04-27T07:05:00.719Z,38.40
2018-04-27T07:07:29.074Z,38.40
2018-04-27T07:09:56.697Z,38.40
2018-04-27T07:12:24.283Z,38.50
2018-04-27T07:14:52.673Z,38.50
2018-04-27T07:17:21.769Z,38.40
2018-04-27T07:19:49.386Z,38.40
2018-04-27T07:22:16.953Z,38.40
2018-04-27T07:24:44.565Z,39.00
2018-04-27T07:27:12.170Z,38.50
2018-04-27T07:29:39.783Z,38.50
2018-04-27T07:32:07.499Z,38.50
2018-04-27T07:34:35.474Z,38.50
2018-04-27T07:37:03.086Z,38.50
2018-04-27T07:39:30.686Z,38.50
2018-04-27T07:41:59.035Z,38.50
2018-04-27T07:44:26.746Z,38.40
2018-04-27T07:46:54.323Z,38.40
2018-04-27T07:49:22.263Z,38.40
2018-04-27T07:51:50.597Z,38.40
2018-04-27T07:54:18.211Z,38.30
2018-04-27T07:56:45.790Z,39.00
2018-04-27T07:59:13.362Z,38.30
2018-04-27T08:01:40.965Z,38.20
2018-04-27T08:04:08.546Z,38.30
2018-04-27T08:06:36.155Z,38.30
2018-04-27T08:09:03.790Z,38.20
2018-04-27T08:11:31.405Z,38.30
2018-04-27T08:13:58.982Z,38.30
2018-04-27T08:16:27.658Z,38.30
2018-04-27T08:18:55.266Z,38.60
2018-04-27T08:21:22.926Z,38.30
2018-04-27T08:23:50.503Z,38.40
2018-04-27T08:26:21.653Z,38.60
2018-04-27T08:28:50.082Z,38.70
2018-04-27T08:31:17.693Z,38.70
2018-04-27T08:33:45.261Z,38.80
2018-04-27T08:36:12.880Z,39.00
2018-04-27T08:38:40.479Z,38.90
2018-04-27T08:41:08.110Z,38.80
2018-04-27T08:43:35.683Z,38.80
2018-04-27T08:46:04.057Z,39.60
2018-04-27T08:48:31.634Z,38.90
2018-04-27T08:50:59.240Z,39.10
2018-04-27T08:53:27.586Z,39.00
2018-04-27T08:55:55.199Z,39.00
2018-04-27T08:58:22.774Z,38.90
2018-04-27T09:00:50.385Z,39.00
2018-04-27T09:03:18.010Z,38.90
2018-04-27T09:05:46.578Z,38.90
2018-04-27T09:08:14.168Z,38.90
2018-04-27T09:10:43.298Z,38.90
2018-04-27T09:13:10.879Z,38.80
2018-04-27T09:15:38.592Z,38.60
2018-04-27T09:18:06.942Z,39.00
2018-04-27T09:20:35.286Z,39.00
2018-04-27T09:23:03.667Z,39.00
2018-04-27T09:25:31.283Z,39.00
2018-04-27T09:27:59.670Z,39.00
2018-04-27T09:30:27.515Z,39.00
2018-04-27T09:32:55.126Z,38.90
2018-04-27T09:35:22.997Z,38.90
2018-04-27T09:37:50.617Z,39.00
2018-04-27T09:40:18.195Z,39.10
2018-04-27T09:42:47.345Z,39.00
2018-04-27T09:45:16.297Z,39.10
2018-04-27T09:47:43.910Z,39.00
2018-04-27T09:50:11.885Z,39.10
2018-04-27T09:52:39.502Z,39.10
2018-04-27T09:55:08.690Z,39.10
2018-04-27T09:57:36.301Z,39.10
2018-04-27T10:00:04.186Z,39.10
2018-04-27T10:02:31.798Z,39.00
2018-04-27T10:04:59.393Z,39.00
2018-04-27T10:07:27.765Z,39.00
2018-04-27T10:09:55.345Z,38.90
2018-04-27T10:12:22.958Z,38.90
2018-04-27T10:14:50.542Z,38.90
2018-04-27T10:19:53.766Z,38.80
2018-04-27T10:22:21.384Z,38.70
2018-04-27T10:24:48.962Z,38.80
2018-04-27T10:27:28.011Z,39.00
2018-04-27T10:29:55.595Z,39.00
2018-04-27T10:32:23.210Z,39.00
2018-04-27T10:34:51.555Z,39.00
2018-04-27T10:37:19.166Z,39.00
2018-04-27T10:39:46.746Z,39.00
2018-04-27T10:42:14.475Z,39.00
2018-04-27T10:44:42.858Z,39.10
2018-04-27T10:47:11.263Z,39.20
2018-04-27T10:49:38.842Z,39.10
2018-04-27T10:52:06.502Z,39.10
2018-04-27T10:54:34.079Z,39.20
2018-04-27T10:57:01.743Z,39.20
2018-04-27T10:59:29.410Z,39.20
2018-04-27T11:01:57.762Z,39.10
2018-04-27T11:04:25.389Z,39.10
2018-04-27T11:06:53.766Z,39.60
2018-04-27T11:09:21.411Z,39.30
2018-04-27T11:11:48.990Z,39.30
2018-04-27T11:14:16.667Z,39.20
2018-04-27T11:16:45.588Z,39.30
2018-04-27T11:19:13.442Z,39.10
2018-04-27T11:21:41.027Z,39.10
2018-04-27T11:24:08.729Z,39.20
2018-04-27T11:26:37.818Z,39.00
2018-04-27T11:29:05.429Z,39.00
2018-04-27T11:31:33.010Z,39.30
2018-04-27T11:34:00.622Z,39.10
2018-04-27T11:36:28.996Z,39.30
2018-04-27T11:38:56.642Z,39.20
2018-04-27T11:41:24.218Z,39.50
2018-04-27T11:43:51.902Z,39.40
2018-04-27T11:46:19.602Z,39.10
2018-04-27T11:48:47.234Z,39.20
2018-04-27T11:51:14.811Z,39.40
2018-04-27T11:53:42.426Z,39.30
2018-04-27T11:56:10.822Z,39.30
2018-04-27T11:58:38.443Z,39.30
2018-04-27T12:01:06.085Z,40.00
2018-04-27T12:03:33.699Z,39.30
2018-04-27T12:06:02.078Z,39.30
2018-04-27T12:08:29.694Z,39.20
2018-04-27T12:10:58.034Z,39.20
2018-04-27T12:13:25.650Z,39.10
2018-04-27T12:15:53.259Z,39.10
2018-04-27T12:18:21.669Z,39.10
2018-04-27T12:20:50.016Z,39.20
2018-04-27T12:23:17.629Z,39.10
2018-04-27T12:25:45.207Z,39.30
2018-04-27T12:28:14.326Z,39.40
2018-04-27T12:30:41.905Z,39.30
2018-04-27T12:33:09.514Z,39.30
2018-04-27T12:35:37.092Z,39.40
2018-04-27T12:38:04.697Z,39.20
2018-04-27T12:40:33.046Z,39.30
2018-04-27T12:43:00.662Z,39.30
2018-04-27T12:45:28.524Z,39.30
2018-04-27T12:47:56.101Z,39.30
2018-04-27T12:50:24.105Z,39.30
2018-04-27T12:52:51.706Z,39.30
2018-04-27T12:55:19.355Z,39.20
2018-04-27T12:57:46.970Z,39.20
2018-04-27T13:00:14.837Z,39.30
2018-04-27T13:02:42.418Z,39.30
2018-04-27T13:05:10.326Z,39.30
2018-04-27T13:07:37.901Z,39.20
2018-04-27T13:10:05.689Z,39.20
2018-04-27T13:12:33.301Z,39.20
2018-04-27T13:15:00.914Z,39.30
2018-04-27T13:17:29.278Z,39.30
2018-04-27T13:19:56.889Z,39.30
2018-04-27T13:22:24.463Z,39.20
2018-04-27T13:24:52.083Z,39.20
2018-04-27T13:27:20.431Z,39.60
2018-04-27T13:29:48.042Z,39.30
2018-04-27T13:32:15.622Z,39.20
2018-04-27T13:34:43.239Z,39.40
2018-04-27T13:37:11.590Z,39.40
2018-04-27T13:39:39.207Z,39.40
2018-04-27T13:42:06.786Z,39.40
2018-04-27T13:44:34.402Z,39.30
2018-04-27T13:47:02.750Z,39.50
2018-04-27T13:49:30.382Z,39.50
2018-04-27T13:51:58.040Z,39.40
2018-04-27T13:54:26.380Z,39.50
2018-04-27T13:56:53.965Z,39.40
2018-04-27T13:59:21.579Z,39.40
2018-04-27T14:01:49.157Z,39.40
2018-04-27T14:04:16.766Z,39.40
2018-04-27T14:06:44.350Z,39.50
2018-04-27T14:09:11.990Z,39.50
2018-04-27T14:11:39.570Z,39.50
2018-04-27T14:14:07.222Z,39.50
2018-04-27T14:16:34.818Z,40.20
2018-04-27T14:19:02.435Z,39.50
2018-04-27T14:21:30.822Z,39.50
2018-04-27T14:23:58.474Z,39.50
2018-04-27T14:26:26.082Z,39.90
2018-04-27T14:28:53.658Z,39.40
2018-04-27T14:31:21.265Z,39.50
2018-04-27T14:33:49.660Z,39.30
2018-04-27T14:36:17.246Z,39.40
2018-04-27T14:38:45.591Z,39.70
2018-04-27T14:41:13.214Z,39.30
2018-04-27T14:43:40.781Z,39.40
2018-04-27T14:46:08.394Z,39.30
2018-04-27T14:48:35.967Z,39.20
2018-04-27T14:51:03.598Z,39.30
2018-04-27T14:53:32.678Z,39.40
2018-04-27T14:56:00.283Z,39.30
2018-04-27T14:58:27.926Z,39.50
2018-04-27T15:00:55.579Z,39.20
2018-04-27T15:03:23.175Z,39.40
2018-04-27T15:05:50.797Z,39.40
2018-04-27T15:08:18.381Z,39.40
2018-04-27T15:10:45.988Z,39.50
2018-04-27T15:13:13.567Z,39.50
2018-04-27T15:15:41.170Z,39.50
2018-04-27T15:18:08.738Z,39.50
2018-04-27T15:20:36.346Z,39.40
2018-04-27T15:23:03.918Z,39.40
2018-04-27T15:25:31.530Z,39.40
2018-04-27T15:27:59.101Z,39.50
2018-04-27T15:30:27.076Z,39.50
2018-04-27T15:32:54.654Z,39.50
2018-04-27T15:35:22.552Z,39.40
2018-04-27T15:37:50.218Z,39.50
2018-04-27T15:40:17.827Z,39.30
2018-04-27T15:42:45.402Z,39.40
2018-04-27T15:58:33.536Z,39.30
2018-04-27T16:01:01.385Z,39.40
2018-04-27T16:03:29.749Z,39.40
2018-04-27T16:05:58.144Z,39.90
2018-04-27T16:08:26.541Z,39.50
2018-04-27T16:10:54.173Z,39.40
2018-04-27T16:26:51.415Z,39.50
2018-04-27T16:29:19.670Z,39.30
2018-04-27T16:31:47.516Z,39.50
2018-04-27T16:34:15.319Z,39.40
2018-04-27T16:36:43.150Z,39.40
2018-04-27T16:39:10.781Z,39.50
2018-04-27T16:41:39.299Z,39.50
2018-04-27T16:44:07.047Z,39.50
2018-04-27T16:46:35.164Z,39.50
2018-04-27T16:49:02.755Z,39.50
2018-04-27T16:51:31.148Z,39.50
2018-04-27T16:53:58.966Z,39.50
2018-04-27T16:56:26.876Z,39.50
2018-04-27T16:58:55.853Z,39.50
2018-04-27T17:01:23.769Z,39.50
2018-04-27T17:03:51.594Z,39.60
2018-04-27T17:06:20.215Z,39.60
2018-04-27T17:08:48.016Z,39.60
2018-04-27T17:11:16.209Z,39.60
2018-04-27T17:13:44.062Z,39.60
2018-04-27T17:16:11.935Z,39.60
2018-04-27T17:18:39.792Z,39.70
2018-04-27T17:21:07.801Z,39.70
2018-04-27T17:23:36.498Z,39.70
2018-04-27T17:26:05.072Z,39.70
2018-04-27T17:28:33.971Z,39.80
2018-04-27T17:31:02.371Z,39.80
2018-04-27T17:33:30.127Z,39.80
2018-04-27T17:35:57.769Z,39.80
2018-04-27T17:38:26.186Z,39.80
2018-04-27T17:40:54.415Z,39.80
2018-04-27T17:43:22.118Z,39.80
2018-04-27T17:45:49.798Z,39.80
2018-04-27T17:48:17.526Z,39.80
2018-04-27T17:50:45.892Z,39.80
2018-04-27T17:53:14.576Z,39.90
2018-04-27T17:55:42.430Z,39.80
2018-04-27T17:58:10.224Z,40.40
2018-04-27T18:00:38.789Z,39.80
2018-04-27T18:03:06.645Z,39.80
2018-04-27T18:05:34.840Z,39.90
2018-04-27T18:08:03.500Z,40.70
2018-04-27T18:10:31.161Z,40.00
2018-04-27T18:13:10.868Z,40.00
2018-04-27T18:15:38.490Z,40.00
2018-04-27T18:18:06.202Z,40.10
2018-04-27T18:20:34.409Z,40.10
2018-04-27T18:23:02.333Z,40.20
2018-04-27T18:25:30.013Z,40.20
2018-04-27T18:27:58.689Z,40.30
2018-04-27T18:30:26.907Z,40.20
2018-04-27T18:32:54.549Z,40.30
2018-04-27T18:35:22.503Z,40.20
2018-04-27T18:37:50.209Z,40.30
2018-04-27T18:40:17.924Z,40.30
2018-04-27T18:42:45.617Z,40.30
2018-04-27T18:45:13.393Z,40.40
2018-04-27T18:47:41.146Z,40.40
2018-04-27T18:50:09.310Z,40.40
2018-04-27T18:52:37.799Z,40.40
2018-04-27T18:55:05.684Z,40.50
2018-04-27T18:57:33.467Z,40.50
2018-04-27T19:00:01.088Z,40.50
2018-04-27T19:02:29.508Z,40.50
2018-04-27T19:04:57.229Z,40.50
2018-04-27T19:07:26.155Z,40.60
2018-04-27T19:09:53.895Z,40.70
2018-04-27T19:12:22.924Z,40.60
2018-04-27T19:14:52.014Z,40.70
2018-04-27T19:17:19.913Z,40.70
2018-04-27T19:19:48.702Z,40.80
2018-04-27T19:22:22.341Z,40.80
2018-04-27T19:24:50.360Z,40.80
2018-04-27T19:27:18.225Z,40.90
2018-04-27T19:29:46.482Z,40.80
2018-04-27T19:32:14.435Z,40.80
2018-04-27T19:34:42.375Z,40.90
2018-04-27T19:37:11.630Z,40.90
2018-04-27T19:39:39.753Z,40.90
2018-04-27T19:42:07.661Z,41.10
2018-04-27T19:44:35.901Z,40.90
2018-04-27T19:47:04.587Z,41.00
2018-04-27T19:49:32.654Z,41.00
2018-04-27T19:52:00.698Z,41.10
2018-04-27T19:54:29.455Z,41.10
2018-04-27T19:56:59.282Z,41.00
2018-04-27T19:59:27.216Z,41.10
2018-04-27T20:01:55.044Z,41.00
2018-04-27T20:04:23.133Z,41.10
2018-04-27T20:06:51.881Z,41.10
2018-04-27T20:09:20.071Z,41.00
2018-04-27T20:11:48.928Z,41.20
2018-04-27T20:14:43.084Z,41.20
2018-04-27T20:17:12.388Z,41.10
2018-04-27T20:19:47.819Z,41.20
2018-04-27T20:22:16.335Z,41.20
2018-04-27T20:24:44.822Z,41.20
2018-04-27T20:27:12.465Z,41.20
2018-04-27T20:29:40.705Z,41.40
2018-04-27T20:32:09.169Z,41.30
2018-04-27T20:34:36.856Z,41.30
2018-04-27T20:37:05.297Z,41.40
2018-04-27T20:39:32.979Z,42.00
2018-04-27T20:42:00.915Z,41.40
2018-04-27T20:44:28.838Z,41.40
2018-04-27T20:46:56.612Z,41.50
2018-04-27T20:49:25.018Z,41.30
2018-04-27T20:51:52.891Z,41.30
2018-04-27T20:54:20.612Z,41.30
2018-04-27T20:56:50.141Z,41.40
2018-04-27T20:59:19.275Z,41.30
2018-04-27T21:01:46.877Z,41.30
2018-04-27T21:04:14.629Z,41.40
2018-04-27T21:06:42.277Z,41.30
2018-04-27T21:09:12.814Z,41.70
2018-04-27T21:11:40.485Z,41.70
2018-04-27T21:14:08.093Z,41.50
2018-04-27T21:16:35.821Z,41.40
2018-04-27T21:19:03.582Z,41.70
2018-04-27T21:21:32.045Z,41.60
2018-04-27T21:23:59.984Z,41.60
2018-04-27T21:26:29.526Z,41.50
2018-04-27T21:28:57.193Z,41.90
2018-04-27T21:31:24.831Z,41.50
2018-04-27T21:33:56.346Z,41.80
2018-04-27T21:36:25.028Z,41.70
2018-04-27T21:39:10.405Z,41.70
2018-04-27T21:41:47.385Z,41.90
2018-04-27T21:44:15.824Z,41.60
2018-04-27T21:46:46.150Z,42.00
2018-04-27T21:49:14.728Z,42.00
2018-04-27T21:51:57.289Z,42.00
2018-04-27T21:54:32.656Z,42.20
2018-04-27T21:57:10.379Z,42.20
2018-04-27T21:59:46.725Z,42.20
2018-04-27T22:02:48.769Z,42.20
2018-04-27T22:09:00.495Z,41.80
2018-04-27T22:11:37.611Z,42.10
2018-04-27T22:14:07.804Z,42.20
2018-04-27T22:16:39.056Z,42.10
2018-04-27T22:19:07.559Z,41.80
2018-04-27T22:21:37.786Z,42.10
2018-04-27T22:24:06.931Z,42.10
2018-04-27T22:26:34.622Z,42.00
2018-04-27T22:32:13.401Z,41.80
2018-04-27T22:34:46.455Z,41.70
2018-04-27T22:37:14.368Z,41.70
2018-04-27T22:40:02.718Z,41.80
2018-04-27T22:42:40.193Z,41.90
2018-04-27T22:45:13.381Z,41.80
2018-04-27T22:51:21.799Z,42.00
2018-04-27T22:53:51.159Z,41.90
2018-04-27T22:59:31.091Z,41.90
2018-04-27T23:02:01.350Z,42.00
2018-04-27T23:04:28.937Z,42.00
2018-04-27T23:06:56.641Z,42.00
2018-04-27T23:09:24.286Z,41.90
2018-04-27T23:11:51.913Z,42.00
2018-04-27T23:14:21.262Z,41.90
2018-04-27T23:16:51.142Z,42.00
2018-04-27T23:19:18.775Z,42.00
2018-04-27T23:21:53.186Z,42.00
2018-04-27T23:24:20.818Z,42.00
2018-04-27T23:27:01.118Z,42.00
2018-04-27T23:29:28.718Z,41.90
2018-04-27T23:31:56.362Z,41.90
2018-04-27T23:34:24.758Z,42.00
2018-04-27T23:36:52.422Z,41.90
2018-04-27T23:39:20.068Z,42.60
2018-04-27T23:41:47.711Z,41.90
2018-04-27T23:44:15.351Z,41.90
2018-04-27T23:46:43.029Z,41.80
2018-04-27T23:49:10.665Z,41.90
2018-04-27T23:51:38.251Z,41.80
2018-04-27T23:54:05.930Z,41.80
2018-04-27T23:56:48.450Z,41.80
2018-04-27T23:59:16.938Z,41.70
